sensor_id;sensor_type;location;lat;lon;timestamp;pressure;altitude;pressure_sealevel;temperature;humidity
47913;BME280;33676;51.006;17.180;2023-03-13T00:01:44;99546.37;;;5.49;91.63
47913;BME280;33676;51.006;17.180;2023-03-13T00:04:13;99543.21;;;5.50;91.57
47913;BME280;33676;51.006;17.180;2023-03-13T00:06:42;99545.30;;;5.50;91.72
47913;BME280;33676;51.006;17.180;2023-03-13T00:09:13;99554.20;;;5.49;91.80
47913;BME280;33676;51.006;17.180;2023-03-13T00:11:44;99554.80;;;5.48;91.91
47913;BME280;33676;51.006;17.180;2023-03-13T00:14:13;99561.88;;;5.48;91.96
47913;BME280;33676;51.006;17.180;2023-03-13T00:16:41;99558.88;;;5.49;92.08
47913;BME280;33676;51.006;17.180;2023-03-13T00:19:09;99557.21;;;5.51;92.26
47913;BME280;33676;51.006;17.180;2023-03-13T00:21:38;99556.88;;;5.53;92.29
47913;BME280;33676;51.006;17.180;2023-03-13T00:24:10;99555.65;;;5.53;92.21
47913;BME280;33676;51.006;17.180;2023-03-13T00:26:39;99551.95;;;5.54;92.30
47913;BME280;33676;51.006;17.180;2023-03-13T00:29:07;99558.94;;;5.56;92.34
47913;BME280;33676;51.006;17.180;2023-03-13T00:31:36;99559.72;;;5.57;92.47
47913;BME280;33676;51.006;17.180;2023-03-13T00:34:04;99558.81;;;5.58;92.40
47913;BME280;33676;51.006;17.180;2023-03-13T00:36:34;99556.69;;;5.58;92.57
47913;BME280;33676;51.006;17.180;2023-03-13T00:39:05;99553.00;;;5.59;92.60
47913;BME280;33676;51.006;17.180;2023-03-13T00:41:35;99552.13;;;5.59;92.68
47913;BME280;33676;51.006;17.180;2023-03-13T00:44:04;99545.35;;;5.59;92.54
47913;BME280;33676;51.006;17.180;2023-03-13T00:46:32;99545.62;;;5.58;92.62
47913;BME280;33676;51.006;17.180;2023-03-13T00:49:01;99549.61;;;5.58;92.72
47913;BME280;33676;51.006;17.180;2023-03-13T00:51:30;99552.59;;;5.57;92.80
47913;BME280;33676;51.006;17.180;2023-03-13T00:53:59;99554.76;;;5.56;92.97
47913;BME280;33676;51.006;17.180;2023-03-13T00:56:28;99549.64;;;5.55;93.04
47913;BME280;33676;51.006;17.180;2023-03-13T00:58:58;99555.56;;;5.54;93.24
47913;BME280;33676;51.006;17.180;2023-03-13T01:01:33;99558.27;;;5.53;93.28
47913;BME280;33676;51.006;17.180;2023-03-13T01:04:06;99556.02;;;5.53;93.34
47913;BME280;33676;51.006;17.180;2023-03-13T01:06:38;99551.52;;;5.53;93.60
47913;BME280;33676;51.006;17.180;2023-03-13T01:09:15;99551.23;;;5.54;93.58
47913;BME280;33676;51.006;17.180;2023-03-13T01:11:44;99550.43;;;5.56;93.86
47913;BME280;33676;51.006;17.180;2023-03-13T01:14:17;99551.17;;;5.58;93.91
47913;BME280;33676;51.006;17.180;2023-03-13T01:16:46;99551.05;;;5.59;93.88
47913;BME280;33676;51.006;17.180;2023-03-13T01:19:15;99552.34;;;5.61;94.02
47913;BME280;33676;51.006;17.180;2023-03-13T01:21:44;99553.89;;;5.63;94.25
47913;BME280;33676;51.006;17.180;2023-03-13T01:24:13;99556.48;;;5.66;94.40
47913;BME280;33676;51.006;17.180;2023-03-13T01:26:41;99557.89;;;5.69;94.52
47913;BME280;33676;51.006;17.180;2023-03-13T01:29:10;99556.13;;;5.71;94.48
47913;BME280;33676;51.006;17.180;2023-03-13T01:31:38;99558.88;;;5.74;94.64
47913;BME280;33676;51.006;17.180;2023-03-13T01:34:09;99556.45;;;5.76;94.64
47913;BME280;33676;51.006;17.180;2023-03-13T01:36:37;99561.14;;;5.79;94.81
47913;BME280;33676;51.006;17.180;2023-03-13T01:39:06;99563.21;;;5.81;94.75
47913;BME280;33676;51.006;17.180;2023-03-13T01:41:36;99563.96;;;5.83;94.79
47913;BME280;33676;51.006;17.180;2023-03-13T01:44:04;99560.56;;;5.84;94.81
47913;BME280;33676;51.006;17.180;2023-03-13T01:46:33;99549.27;;;5.85;94.88
47913;BME280;33676;51.006;17.180;2023-03-13T01:49:08;99546.79;;;5.86;95.03
47913;BME280;33676;51.006;17.180;2023-03-13T01:51:53;99550.59;;;5.86;95.18
47913;BME280;33676;51.006;17.180;2023-03-13T01:57:04;99555.09;;;5.86;95.39
47913;BME280;33676;51.006;17.180;2023-03-13T01:59:43;99557.20;;;5.85;95.40
47913;BME280;33676;51.006;17.180;2023-03-13T02:02:14;99563.27;;;5.85;95.68
47913;BME280;33676;51.006;17.180;2023-03-13T02:04:51;99565.47;;;5.86;96.01
47913;BME280;33676;51.006;17.180;2023-03-13T02:07:28;99568.92;;;5.86;96.14
47913;BME280;33676;51.006;17.180;2023-03-13T02:09:58;99577.18;;;5.87;96.47
47913;BME280;33676;51.006;17.180;2023-03-13T02:12:35;99578.52;;;5.88;96.79
47913;BME280;33676;51.006;17.180;2023-03-13T02:15:12;99580.34;;;5.90;97.09
47913;BME280;33676;51.006;17.180;2023-03-13T02:17:43;99587.89;;;5.91;97.23
47913;BME280;33676;51.006;17.180;2023-03-13T02:20:15;99586.29;;;5.91;97.49
47913;BME280;33676;51.006;17.180;2023-03-13T02:23:05;99589.91;;;5.92;97.64
47913;BME280;33676;51.006;17.180;2023-03-13T02:25:45;99595.03;;;5.93;97.74
47913;BME280;33676;51.006;17.180;2023-03-13T02:28:18;99599.46;;;5.94;97.86
47913;BME280;33676;51.006;17.180;2023-03-13T02:30:50;99596.55;;;5.96;98.07
47913;BME280;33676;51.006;17.180;2023-03-13T02:33:25;99592.40;;;5.98;98.04
47913;BME280;33676;51.006;17.180;2023-03-13T02:35:56;99592.48;;;6.00;98.08
47913;BME280;33676;51.006;17.180;2023-03-13T02:38:28;99588.77;;;6.01;98.06
47913;BME280;33676;51.006;17.180;2023-03-13T02:41:00;99590.27;;;6.02;98.21
47913;BME280;33676;51.006;17.180;2023-03-13T02:43:35;99582.05;;;6.03;98.31
47913;BME280;33676;51.006;17.180;2023-03-13T02:46:06;99575.65;;;6.05;98.30
47913;BME280;33676;51.006;17.180;2023-03-13T02:48:39;99572.92;;;6.07;98.42
47913;BME280;33676;51.006;17.180;2023-03-13T02:51:42;99574.50;;;6.09;98.52
47913;BME280;33676;51.006;17.180;2023-03-13T02:54:18;99576.08;;;6.11;98.62
47913;BME280;33676;51.006;17.180;2023-03-13T02:56:53;99578.55;;;6.13;98.66
47913;BME280;33676;51.006;17.180;2023-03-13T02:59:23;99582.39;;;6.15;98.69
47913;BME280;33676;51.006;17.180;2023-03-13T03:01:52;99580.49;;;6.17;98.77
47913;BME280;33676;51.006;17.180;2023-03-13T03:04:23;99578.21;;;6.20;98.89
47913;BME280;33676;51.006;17.180;2023-03-13T03:06:52;99577.34;;;6.23;99.00
47913;BME280;33676;51.006;17.180;2023-03-13T03:09:22;99574.23;;;6.24;99.02
47913;BME280;33676;51.006;17.180;2023-03-13T03:11:50;99574.06;;;6.27;98.92
47913;BME280;33676;51.006;17.180;2023-03-13T03:14:19;99566.16;;;6.28;99.01
47913;BME280;33676;51.006;17.180;2023-03-13T03:16:48;99563.07;;;6.27;98.97
47913;BME280;33676;51.006;17.180;2023-03-13T03:19:16;99561.42;;;6.26;98.95
47913;BME280;33676;51.006;17.180;2023-03-13T03:21:45;99565.90;;;6.27;99.19
47913;BME280;33676;51.006;17.180;2023-03-13T03:24:14;99557.78;;;6.26;99.35
47913;BME280;33676;51.006;17.180;2023-03-13T03:26:42;99556.65;;;6.27;99.55
47913;BME280;33676;51.006;17.180;2023-03-13T03:29:11;99552.38;;;6.29;99.76
47913;BME280;33676;51.006;17.180;2023-03-13T03:31:39;99550.06;;;6.30;99.92
47913;BME280;33676;51.006;17.180;2023-03-13T03:34:08;99544.75;;;6.31;99.97
47913;BME280;33676;51.006;17.180;2023-03-13T03:36:36;99545.03;;;6.32;100.00
47913;BME280;33676;51.006;17.180;2023-03-13T03:39:05;99542.70;;;6.33;100.00
47913;BME280;33676;51.006;17.180;2023-03-13T03:41:33;99545.40;;;6.34;100.00
47913;BME280;33676;51.006;17.180;2023-03-13T03:44:04;99544.61;;;6.36;100.00
47913;BME280;33676;51.006;17.180;2023-03-13T03:46:32;99540.23;;;6.39;100.00
47913;BME280;33676;51.006;17.180;2023-03-13T03:49:01;99542.08;;;6.42;100.00
47913;BME280;33676;51.006;17.180;2023-03-13T03:51:30;99543.44;;;6.45;100.00
47913;BME280;33676;51.006;17.180;2023-03-13T03:53:58;99543.41;;;6.47;100.00
47913;BME280;33676;51.006;17.180;2023-03-13T03:56:27;99543.73;;;6.50;100.00
47913;BME280;33676;51.006;17.180;2023-03-13T03:58:55;99540.45;;;6.52;100.00
47913;BME280;33676;51.006;17.180;2023-03-13T04:01:24;99541.34;;;6.54;100.00
47913;BME280;33676;51.006;17.180;2023-03-13T04:03:52;99544.47;;;6.56;100.00
47913;BME280;33676;51.006;17.180;2023-03-13T04:06:20;99541.63;;;6.60;100.00
47913;BME280;33676;51.006;17.180;2023-03-13T04:08:49;99537.47;;;6.62;100.00
47913;BME280;33676;51.006;17.180;2023-03-13T04:11:17;99538.13;;;6.65;100.00
47913;BME280;33676;51.006;17.180;2023-03-13T04:13:45;99538.41;;;6.68;100.00
47913;BME280;33676;51.006;17.180;2023-03-13T04:16:14;99531.46;;;6.71;100.00
47913;BME280;33676;51.006;17.180;2023-03-13T04:18:42;99525.08;;;6.73;100.00
47913;BME280;33676;51.006;17.180;2023-03-13T04:21:11;99521.31;;;6.74;100.00
47913;BME280;33676;51.006;17.180;2023-03-13T04:23:39;99517.02;;;6.76;100.00
47913;BME280;33676;51.006;17.180;2023-03-13T04:26:07;99516.91;;;6.77;100.00
47913;BME280;33676;51.006;17.180;2023-03-13T04:28:36;99509.44;;;6.79;100.00
47913;BME280;33676;51.006;17.180;2023-03-13T04:31:04;99506.88;;;6.81;100.00
47913;BME280;33676;51.006;17.180;2023-03-13T04:33:33;99502.45;;;6.82;100.00
47913;BME280;33676;51.006;17.180;2023-03-13T04:36:04;99496.27;;;6.83;100.00
47913;BME280;33676;51.006;17.180;2023-03-13T04:38:33;99487.63;;;6.83;100.00
47913;BME280;33676;51.006;17.180;2023-03-13T04:41:01;99482.16;;;6.84;100.00
47913;BME280;33676;51.006;17.180;2023-03-13T04:43:29;99478.27;;;6.85;100.00
47913;BME280;33676;51.006;17.180;2023-03-13T04:45:58;99470.30;;;6.85;100.00
47913;BME280;33676;51.006;17.180;2023-03-13T04:48:26;99467.71;;;6.84;100.00
47913;BME280;33676;51.006;17.180;2023-03-13T04:50:54;99465.63;;;6.84;100.00
47913;BME280;33676;51.006;17.180;2023-03-13T04:53:23;99469.55;;;6.83;100.00
47913;BME280;33676;51.006;17.180;2023-03-13T04:55:52;99469.46;;;6.82;100.00
47913;BME280;33676;51.006;17.180;2023-03-13T04:58:21;99470.27;;;6.80;100.00
47913;BME280;33676;51.006;17.180;2023-03-13T05:00:49;99470.89;;;6.79;100.00
47913;BME280;33676;51.006;17.180;2023-03-13T05:03:18;99470.61;;;6.78;100.00
47913;BME280;33676;51.006;17.180;2023-03-13T05:05:46;99469.42;;;6.78;100.00
47913;BME280;33676;51.006;17.180;2023-03-13T05:08:14;99467.91;;;6.77;100.00
47913;BME280;33676;51.006;17.180;2023-03-13T05:10:43;99470.04;;;6.77;100.00
47913;BME280;33676;51.006;17.180;2023-03-13T05:13:11;99466.43;;;6.76;100.00
47913;BME280;33676;51.006;17.180;2023-03-13T05:15:40;99470.46;;;6.76;100.00
47913;BME280;33676;51.006;17.180;2023-03-13T05:18:08;99468.87;;;6.76;100.00
47913;BME280;33676;51.006;17.180;2023-03-13T05:20:36;99468.34;;;6.76;100.00
47913;BME280;33676;51.006;17.180;2023-03-13T05:23:05;99465.25;;;6.76;100.00
47913;BME280;33676;51.006;17.180;2023-03-13T05:25:33;99460.29;;;6.77;100.00
47913;BME280;33676;51.006;17.180;2023-03-13T05:28:02;99461.45;;;6.80;100.00
47913;BME280;33676;51.006;17.180;2023-03-13T05:30:30;99459.35;;;6.82;100.00
47913;BME280;33676;51.006;17.180;2023-03-13T05:32:59;99454.77;;;6.83;100.00
47913;BME280;33676;51.006;17.180;2023-03-13T05:35:27;99452.45;;;6.82;100.00
47913;BME280;33676;51.006;17.180;2023-03-13T05:37:56;99453.80;;;6.82;100.00
47913;BME280;33676;51.006;17.180;2023-03-13T05:40:24;99450.42;;;6.83;100.00
47913;BME280;33676;51.006;17.180;2023-03-13T05:42:52;99444.73;;;6.85;100.00
47913;BME280;33676;51.006;17.180;2023-03-13T05:45:21;99447.85;;;6.88;100.00
47913;BME280;33676;51.006;17.180;2023-03-13T05:47:49;99445.08;;;6.90;100.00
47913;BME280;33676;51.006;17.180;2023-03-13T05:50:18;99441.77;;;6.92;100.00
47913;BME280;33676;51.006;17.180;2023-03-13T05:52:46;99440.04;;;6.94;100.00
47913;BME280;33676;51.006;17.180;2023-03-13T05:55:15;99438.52;;;6.96;100.00
47913;BME280;33676;51.006;17.180;2023-03-13T05:57:44;99433.02;;;6.97;100.00
47913;BME280;33676;51.006;17.180;2023-03-13T06:00:15;99433.20;;;7.00;100.00
47913;BME280;33676;51.006;17.180;2023-03-13T06:02:44;99431.49;;;7.02;100.00
47913;BME280;33676;51.006;17.180;2023-03-13T06:05:12;99431.00;;;7.06;100.00
47913;BME280;33676;51.006;17.180;2023-03-13T06:07:40;99425.60;;;7.08;100.00
47913;BME280;33676;51.006;17.180;2023-03-13T06:10:10;99430.72;;;7.12;100.00
47913;BME280;33676;51.006;17.180;2023-03-13T06:12:38;99426.77;;;7.17;100.00
47913;BME280;33676;51.006;17.180;2023-03-13T06:15:07;99428.55;;;7.24;100.00
47913;BME280;33676;51.006;17.180;2023-03-13T06:17:39;99421.89;;;7.28;100.00
47913;BME280;33676;51.006;17.180;2023-03-13T06:20:08;99422.77;;;7.35;100.00
47913;BME280;33676;51.006;17.180;2023-03-13T06:22:37;99418.98;;;7.41;100.00
47913;BME280;33676;51.006;17.180;2023-03-13T06:25:06;99414.33;;;7.48;100.00
47913;BME280;33676;51.006;17.180;2023-03-13T06:27:35;99413.91;;;7.55;100.00
47913;BME280;33676;51.006;17.180;2023-03-13T06:30:03;99410.98;;;7.61;100.00
47913;BME280;33676;51.006;17.180;2023-03-13T06:32:32;99410.45;;;7.68;100.00
47913;BME280;33676;51.006;17.180;2023-03-13T06:35:00;99407.27;;;7.71;100.00
47913;BME280;33676;51.006;17.180;2023-03-13T06:37:28;99407.16;;;7.74;100.00
47913;BME280;33676;51.006;17.180;2023-03-13T06:39:57;99402.44;;;7.77;100.00
47913;BME280;33676;51.006;17.180;2023-03-13T06:42:25;99398.97;;;7.80;100.00
47913;BME280;33676;51.006;17.180;2023-03-13T06:44:53;99394.24;;;7.87;100.00
47913;BME280;33676;51.006;17.180;2023-03-13T06:47:22;99391.17;;;7.95;100.00
47913;BME280;33676;51.006;17.180;2023-03-13T06:49:50;99389.67;;;8.05;100.00
47913;BME280;33676;51.006;17.180;2023-03-13T06:52:21;99387.08;;;8.16;100.00
47913;BME280;33676;51.006;17.180;2023-03-13T06:56:11;99393.94;;;8.33;100.00
47913;BME280;33676;51.006;17.180;2023-03-13T06:58:40;99389.98;;;8.41;100.00
47913;BME280;33676;51.006;17.180;2023-03-13T07:01:11;99386.12;;;8.50;100.00
47913;BME280;33676;51.006;17.180;2023-03-13T07:03:40;99388.98;;;8.59;100.00
47913;BME280;33676;51.006;17.180;2023-03-13T07:06:10;99395.27;;;8.68;100.00
47913;BME280;33676;51.006;17.180;2023-03-13T07:08:39;99392.48;;;8.76;100.00
47913;BME280;33676;51.006;17.180;2023-03-13T07:11:10;99395.41;;;8.86;100.00
47913;BME280;33676;51.006;17.180;2023-03-13T07:13:39;99389.83;;;8.96;100.00
47913;BME280;33676;51.006;17.180;2023-03-13T07:16:11;99385.14;;;9.08;100.00
47913;BME280;33676;51.006;17.180;2023-03-13T07:18:40;99378.23;;;9.20;100.00
47913;BME280;33676;51.006;17.180;2023-03-13T07:21:14;99370.19;;;9.30;100.00
47913;BME280;33676;51.006;17.180;2023-03-13T07:23:43;99362.34;;;9.38;100.00
47913;BME280;33676;51.006;17.180;2023-03-13T07:26:15;99358.80;;;9.44;100.00
47913;BME280;33676;51.006;17.180;2023-03-13T07:28:44;99353.22;;;9.48;100.00
47913;BME280;33676;51.006;17.180;2023-03-13T07:31:18;99351.98;;;9.52;100.00
47913;BME280;33676;51.006;17.180;2023-03-13T07:33:47;99349.46;;;9.59;100.00
47913;BME280;33676;51.006;17.180;2023-03-13T07:36:16;99349.31;;;9.67;100.00
47913;BME280;33676;51.006;17.180;2023-03-13T07:38:48;99340.92;;;9.75;100.00
47913;BME280;33676;51.006;17.180;2023-03-13T07:41:18;99349.27;;;9.86;100.00
47913;BME280;33676;51.006;17.180;2023-03-13T07:43:48;99342.88;;;10.01;100.00
47913;BME280;33676;51.006;17.180;2023-03-13T07:46:18;99339.45;;;10.14;100.00
47913;BME280;33676;51.006;17.180;2023-03-13T07:48:48;99337.29;;;10.32;100.00
47913;BME280;33676;51.006;17.180;2023-03-13T07:51:23;99326.65;;;10.54;100.00
47913;BME280;33676;51.006;17.180;2023-03-13T07:54:09;99319.30;;;10.77;100.00
47913;BME280;33676;51.006;17.180;2023-03-13T07:56:45;99310.94;;;10.93;100.00
47913;BME280;33676;51.006;17.180;2023-03-13T07:59:13;99307.31;;;11.03;100.00
47913;BME280;33676;51.006;17.180;2023-03-13T08:01:42;99308.21;;;11.07;100.00
47913;BME280;33676;51.006;17.180;2023-03-13T08:04:12;99316.78;;;11.10;99.94
47913;BME280;33676;51.006;17.180;2023-03-13T08:06:43;99321.38;;;11.13;99.84
47913;BME280;33676;51.006;17.180;2023-03-13T08:09:11;99322.63;;;11.17;99.26
47913;BME280;33676;51.006;17.180;2023-03-13T08:11:40;99317.48;;;11.21;99.19
47913;BME280;33676;51.006;17.180;2023-03-13T08:14:09;99316.08;;;11.26;98.98
47913;BME280;33676;51.006;17.180;2023-03-13T08:16:38;99314.77;;;11.29;98.24
47913;BME280;33676;51.006;17.180;2023-03-13T08:19:06;99315.02;;;11.33;97.83
47913;BME280;33676;51.006;17.180;2023-03-13T08:21:36;99313.66;;;11.36;97.65
47913;BME280;33676;51.006;17.180;2023-03-13T08:24:07;99310.48;;;11.43;97.65
47913;BME280;33676;51.006;17.180;2023-03-13T08:26:38;99303.46;;;11.48;97.57
47913;BME280;33676;51.006;17.180;2023-03-13T08:29:14;99304.41;;;11.54;97.55
47913;BME280;33676;51.006;17.180;2023-03-13T08:31:48;99296.59;;;11.59;97.56
47913;BME280;33676;51.006;17.180;2023-03-13T08:34:18;99290.17;;;11.61;97.11
47913;BME280;33676;51.006;17.180;2023-03-13T08:36:46;99277.96;;;11.62;96.85
47913;BME280;33676;51.006;17.180;2023-03-13T08:39:17;99273.83;;;11.65;96.74
47913;BME280;33676;51.006;17.180;2023-03-13T08:41:46;99275.84;;;11.69;96.80
47913;BME280;33676;51.006;17.180;2023-03-13T08:44:18;99276.44;;;11.74;96.65
47913;BME280;33676;51.006;17.180;2023-03-13T08:46:49;99276.27;;;11.80;96.75
47913;BME280;33676;51.006;17.180;2023-03-13T08:49:18;99280.98;;;11.83;96.00
47913;BME280;33676;51.006;17.180;2023-03-13T08:51:46;99291.52;;;11.86;95.79
47913;BME280;33676;51.006;17.180;2023-03-13T08:54:15;99288.70;;;11.90;95.71
47913;BME280;33676;51.006;17.180;2023-03-13T08:56:43;99282.78;;;11.93;95.55
47913;BME280;33676;51.006;17.180;2023-03-13T08:59:12;99278.81;;;11.98;95.36
47913;BME280;33676;51.006;17.180;2023-03-13T09:01:42;99265.16;;;12.04;95.40
47913;BME280;33676;51.006;17.180;2023-03-13T09:04:11;99256.29;;;12.12;95.41
47913;BME280;33676;51.006;17.180;2023-03-13T09:06:39;99251.97;;;12.19;95.31
47913;BME280;33676;51.006;17.180;2023-03-13T09:09:09;99244.56;;;12.23;94.87
47913;BME280;33676;51.006;17.180;2023-03-13T09:11:38;99242.94;;;12.25;94.73
47913;BME280;33676;51.006;17.180;2023-03-13T09:14:09;99241.38;;;12.27;94.56
47913;BME280;33676;51.006;17.180;2023-03-13T09:16:37;99242.49;;;12.28;94.02
47913;BME280;33676;51.006;17.180;2023-03-13T09:19:06;99244.27;;;12.29;94.28
47913;BME280;33676;51.006;17.180;2023-03-13T09:21:34;99241.96;;;12.31;93.92
47913;BME280;33676;51.006;17.180;2023-03-13T09:24:03;99230.20;;;12.33;93.97
47913;BME280;33676;51.006;17.180;2023-03-13T09:26:32;99231.30;;;12.36;94.05
47913;BME280;33676;51.006;17.180;2023-03-13T09:29:00;99223.16;;;12.37;93.69
47913;BME280;33676;51.006;17.180;2023-03-13T09:31:31;99225.98;;;12.35;93.41
47913;BME280;33676;51.006;17.180;2023-03-13T09:34:00;99214.70;;;12.34;93.27
47913;BME280;33676;51.006;17.180;2023-03-13T09:36:29;99205.91;;;12.31;93.03
47913;BME280;33676;51.006;17.180;2023-03-13T09:38:59;99206.27;;;12.29;92.95
47913;BME280;33676;51.006;17.180;2023-03-13T09:42:00;99205.71;;;12.30;92.78
47913;BME280;33676;51.006;17.180;2023-03-13T09:44:36;99202.51;;;12.32;92.98
47913;BME280;33676;51.006;17.180;2023-03-13T09:47:33;99197.71;;;12.34;92.76
47913;BME280;33676;51.006;17.180;2023-03-13T09:50:43;99187.61;;;12.37;92.77
47913;BME280;33676;51.006;17.180;2023-03-13T09:53:30;99180.57;;;12.35;92.25
47913;BME280;33676;51.006;17.180;2023-03-13T09:56:04;99173.45;;;12.31;91.88
47913;BME280;33676;51.006;17.180;2023-03-13T09:58:33;99168.95;;;12.25;91.67
47913;BME280;33676;51.006;17.180;2023-03-13T10:01:04;99161.48;;;12.21;91.70
47913;BME280;33676;51.006;17.180;2023-03-13T10:03:49;99160.94;;;12.18;91.42
47913;BME280;33676;51.006;17.180;2023-03-13T10:06:20;99145.75;;;12.18;91.69
47913;BME280;33676;51.006;17.180;2023-03-13T10:08:51;99139.20;;;12.18;91.63
47913;BME280;33676;51.006;17.180;2023-03-13T10:11:33;99133.02;;;12.20;91.69
47913;BME280;33676;51.006;17.180;2023-03-13T10:14:12;99127.98;;;12.23;91.92
47913;BME280;33676;51.006;17.180;2023-03-13T10:17:01;99127.58;;;12.28;91.57
47913;BME280;33676;51.006;17.180;2023-03-13T10:19:40;99123.14;;;12.28;91.97
47913;BME280;33676;51.006;17.180;2023-03-13T10:22:18;99119.61;;;12.27;91.68
47913;BME280;33676;51.006;17.180;2023-03-13T10:24:57;99119.45;;;12.21;90.86
47913;BME280;33676;51.006;17.180;2023-03-13T10:27:26;99117.59;;;12.16;91.24
47913;BME280;33676;51.006;17.180;2023-03-13T10:29:55;99110.46;;;12.08;91.45
47913;BME280;33676;51.006;17.180;2023-03-13T10:32:23;99101.86;;;12.02;91.82
47913;BME280;33676;51.006;17.180;2023-03-13T10:37:29;99099.64;;;11.84;92.53
47913;BME280;33676;51.006;17.180;2023-03-13T10:40:13;99095.17;;;11.75;92.95
47913;BME280;33676;51.006;17.180;2023-03-13T10:42:48;99090.24;;;11.68;93.28
47913;BME280;33676;51.006;17.180;2023-03-13T10:45:21;99089.99;;;11.65;93.62
47913;BME280;33676;51.006;17.180;2023-03-13T10:47:54;99084.02;;;11.64;93.90
47913;BME280;33676;51.006;17.180;2023-03-13T10:50:26;99083.04;;;11.65;94.11
47913;BME280;33676;51.006;17.180;2023-03-13T10:52:57;99078.31;;;11.65;94.42
47913;BME280;33676;51.006;17.180;2023-03-13T10:55:25;99072.67;;;11.65;94.41
47913;BME280;33676;51.006;17.180;2023-03-13T10:58:04;99071.05;;;11.66;94.64
47913;BME280;33676;51.006;17.180;2023-03-13T11:00:37;99068.30;;;11.65;94.65
47913;BME280;33676;51.006;17.180;2023-03-13T11:03:18;99073.14;;;11.66;94.67
47913;BME280;33676;51.006;17.180;2023-03-13T11:05:59;99070.13;;;11.68;94.86
47913;BME280;33676;51.006;17.180;2023-03-13T11:08:36;99074.45;;;11.72;95.10
47913;BME280;33676;51.006;17.180;2023-03-13T11:11:16;99080.88;;;11.78;95.23
47913;BME280;33676;51.006;17.180;2023-03-13T11:13:45;99086.70;;;11.86;95.52
47913;BME280;33676;51.006;17.180;2023-03-13T11:16:20;99086.81;;;11.93;95.71
47913;BME280;33676;51.006;17.180;2023-03-13T11:36:28;99071.60;;;12.42;94.97
47913;BME280;33676;51.006;17.180;2023-03-13T11:42:42;99057.20;;;12.55;94.78
47913;BME280;33676;51.006;17.180;2023-03-13T11:51:42;99039.28;;;12.67;94.28
47913;BME280;33676;51.006;17.180;2023-03-13T11:54:49;99040.23;;;12.68;94.42
47913;BME280;33676;51.006;17.180;2023-03-13T12:07:05;99028.77;;;12.55;93.80
47913;BME280;33676;51.006;17.180;2023-03-13T12:10:09;99021.90;;;12.52;93.93
47913;BME280;33676;51.006;17.180;2023-03-13T12:12:48;99020.30;;;12.49;93.81
47913;BME280;33676;51.006;17.180;2023-03-13T12:15:20;99021.30;;;12.46;93.77
47913;BME280;33676;51.006;17.180;2023-03-13T12:18:17;99018.40;;;12.44;93.80
47913;BME280;33676;51.006;17.180;2023-03-13T12:21:03;99013.95;;;12.40;93.87
47913;BME280;33676;51.006;17.180;2023-03-13T12:26:15;99005.15;;;12.39;94.47
47913;BME280;33676;51.006;17.180;2023-03-13T12:29:11;99007.45;;;12.40;94.78
47913;BME280;33676;51.006;17.180;2023-03-13T12:37:59;99005.34;;;12.37;95.45
47913;BME280;33676;51.006;17.180;2023-03-13T12:40:46;99004.23;;;12.34;95.59
47913;BME280;33676;51.006;17.180;2023-03-13T12:43:39;98997.58;;;12.32;95.91
47913;BME280;33676;51.006;17.180;2023-03-13T12:46:41;99003.16;;;12.31;96.12
47913;BME280;33676;51.006;17.180;2023-03-13T12:49:35;99000.17;;;12.33;96.11
47913;BME280;33676;51.006;17.180;2023-03-13T12:58:20;98974.25;;;12.49;96.36
47913;BME280;33676;51.006;17.180;2023-03-13T13:00:54;98974.55;;;12.54;96.34
47913;BME280;33676;51.006;17.180;2023-03-13T13:03:47;98973.59;;;12.58;96.32
47913;BME280;33676;51.006;17.180;2023-03-13T13:06:18;98968.84;;;12.65;96.31
47913;BME280;33676;51.006;17.180;2023-03-13T13:11:44;98967.13;;;12.79;96.52
47913;BME280;33676;51.006;17.180;2023-03-13T13:16:47;98973.17;;;12.83;96.25
47913;BME280;33676;51.006;17.180;2023-03-13T13:30:51;98964.13;;;12.89;96.04
47913;BME280;33676;51.006;17.180;2023-03-13T13:41:37;98967.59;;;13.01;96.03
47913;BME280;33676;51.006;17.180;2023-03-13T13:44:26;98962.92;;;13.05;96.06
47913;BME280;33676;51.006;17.180;2023-03-13T13:46:57;98968.02;;;13.09;95.99
47913;BME280;33676;51.006;17.180;2023-03-13T13:49:31;98955.84;;;13.13;95.84
47913;BME280;33676;51.006;17.180;2023-03-13T13:54:52;98950.70;;;13.15;95.75
47913;BME280;33676;51.006;17.180;2023-03-13T13:57:42;98938.55;;;13.17;95.79
47913;BME280;33676;51.006;17.180;2023-03-13T14:00:24;98937.66;;;13.19;95.66
47913;BME280;33676;51.006;17.180;2023-03-13T14:02:55;98941.41;;;13.21;95.71
47913;BME280;33676;51.006;17.180;2023-03-13T14:05:30;98936.14;;;13.25;95.49
47913;BME280;33676;51.006;17.180;2023-03-13T14:08:07;98937.91;;;13.28;95.21
47913;BME280;33676;51.006;17.180;2023-03-13T14:11:27;98941.75;;;13.31;95.38
47913;BME280;33676;51.006;17.180;2023-03-13T14:14:22;98940.42;;;13.34;94.82
47913;BME280;33676;51.006;17.180;2023-03-13T14:16:55;98930.90;;;13.37;95.00
47913;BME280;33676;51.006;17.180;2023-03-13T14:19:32;98926.78;;;13.40;94.68
47913;BME280;33676;51.006;17.180;2023-03-13T14:22:08;98932.40;;;13.43;94.81
47913;BME280;33676;51.006;17.180;2023-03-13T14:24:37;98935.19;;;13.46;94.52
47913;BME280;33676;51.006;17.180;2023-03-13T14:27:17;98939.27;;;13.50;94.61
47913;BME280;33676;51.006;17.180;2023-03-13T14:30:00;98945.83;;;13.54;94.47
47913;BME280;33676;51.006;17.180;2023-03-13T14:32:29;98947.20;;;13.58;94.37
47913;BME280;33676;51.006;17.180;2023-03-13T14:34:57;98942.44;;;13.61;94.57
47913;BME280;33676;51.006;17.180;2023-03-13T14:37:44;98931.84;;;13.62;94.46
47913;BME280;33676;51.006;17.180;2023-03-13T14:40:27;98938.33;;;13.62;94.39
47913;BME280;33676;51.006;17.180;2023-03-13T14:43:15;98933.33;;;13.59;94.18
47913;BME280;33676;51.006;17.180;2023-03-13T14:45:44;98928.43;;;13.58;94.17
47913;BME280;33676;51.006;17.180;2023-03-13T14:48:31;98932.75;;;13.57;94.23